createdAt,value
2023-02-14T00:01:27.146Z,35.08
2023-02-14T00:06:20.005Z,33.90
2023-02-14T00:11:14.425Z,30.25
2023-02-14T00:16:08.441Z,31.00
2023-02-14T00:21:02.603Z,33.13
2023-02-14T00:25:55.733Z,31.23
2023-02-14T00:30:49.193Z,31.05
2023-02-14T00:35:41.464Z,32.97
2023-02-14T00:40:35.182Z,34.50
2023-02-14T00:45:32.052Z,31.38
2023-02-14T00:50:25.477Z,32.00
2023-02-14T00:55:18.829Z,30.25
2023-02-14T01:00:14.316Z,28.88
2023-02-14T01:05:08.587Z,29.50
2023-02-14T01:10:02.561Z,29.45
2023-02-14T01:14:56.533Z,31.05
2023-02-14T01:19:49.574Z,30.25
2023-02-14T01:24:42.890Z,35.08
2023-02-14T01:29:36.502Z,31.33
2023-02-14T01:34:29.738Z,32.45
2023-02-14T01:39:23.508Z,29.88
2023-02-14T01:44:16.480Z,31.45
2023-02-14T01:49:22.940Z,31.15
2023-02-14T01:54:16.235Z,30.10
2023-02-14T01:59:12.200Z,31.30
2023-02-14T02:04:11.496Z,29.90
2023-02-14T02:09:27.172Z,27.30
2023-02-14T02:14:22.159Z,28.73
2023-02-14T02:19:36.539Z,28.95
2023-02-14T02:24:35.435Z,28.95
2023-02-14T02:29:49.596Z,26.07
2023-02-14T02:35:15.764Z,25.80
2023-02-14T02:40:29.901Z,25.55
2023-02-14T02:46:06.303Z,25.17
2023-02-14T02:51:19.902Z,27.67
2023-02-14T02:56:41.245Z,27.77
2023-02-14T03:01:38.408Z,27.17
2023-02-14T03:06:33.381Z,26.95
2023-02-14T03:11:27.181Z,26.67
2023-02-14T03:16:33.095Z,27.13
2023-02-14T03:21:47.360Z,27.55
2023-02-14T03:27:02.441Z,26.48
2023-02-14T03:32:23.567Z,27.67
2023-02-14T03:37:26.837Z,29.30
2023-02-14T03:42:24.509Z,28.02
2023-02-14T03:47:23.633Z,26.13
2023-02-14T03:52:17.389Z,25.83
2023-02-14T03:57:20.017Z,27.20
2023-02-14T04:02:21.271Z,26.33
2023-02-14T04:07:17.711Z,28.50
2023-02-14T04:12:11.393Z,30.08
2023-02-14T04:17:22.848Z,28.60
2023-02-14T04:22:16.049Z,27.42
2023-02-14T04:27:13.550Z,29.58
2023-02-14T04:32:14.348Z,31.33
2023-02-14T04:37:15.601Z,32.78
2023-02-14T04:42:08.717Z,27.30
2023-02-14T04:47:02.487Z,28.35
2023-02-14T04:51:56.240Z,30.52
2023-02-14T04:56:50.292Z,28.02
2023-02-14T05:01:43.433Z,28.02
2023-02-14T05:06:37.094Z,26.85
2023-02-14T05:11:31.219Z,28.60
2023-02-14T05:16:24.995Z,27.75
2023-02-14T05:21:18.507Z,28.30
2023-02-14T05:26:11.884Z,29.15
2023-02-14T05:31:06.252Z,28.10
2023-02-14T05:36:01.606Z,26.85
2023-02-14T05:40:54.802Z,29.33
2023-02-14T05:45:47.251Z,26.83
2023-02-14T05:50:41.157Z,26.90
2023-02-14T05:55:33.578Z,28.92
2023-02-14T06:00:28.621Z,27.45
2023-02-14T06:05:22.712Z,30.13
2023-02-14T06:10:16.322Z,28.92
2023-02-14T06:15:11.103Z,24.55
2023-02-14T06:20:06.070Z,28.85
2023-02-14T06:24:59.475Z,25.77
2023-02-14T06:29:52.853Z,24.63
2023-02-14T06:34:46.209Z,22.98
2023-02-14T06:39:39.400Z,26.55
2023-02-14T06:44:33.197Z,30.45
2023-02-14T06:49:28.768Z,29.67
2023-02-14T06:54:21.856Z,32.65
2023-02-14T06:59:15.364Z,28.83
2023-02-14T07:04:08.313Z,26.70
2023-02-14T07:09:02.310Z,26.65
2023-02-14T07:13:55.129Z,26.42
2023-02-14T07:18:48.562Z,24.77
2023-02-14T07:23:41.749Z,26.50
2023-02-14T07:28:35.979Z,24.95
2023-02-14T07:33:29.525Z,26.60
2023-02-14T07:38:22.764Z,24.38
2023-02-14T07:43:15.765Z,24.10
2023-02-14T07:48:09.337Z,22.67
2023-02-14T07:53:02.737Z,22.00
2023-02-14T07:57:57.159Z,20.63
2023-02-14T08:02:50.780Z,23.20
2023-02-14T08:07:44.668Z,22.67
2023-02-14T08:12:56.037Z,23.30
2023-02-14T08:17:50.132Z,22.52
2023-02-14T08:22:43.539Z,31.08
2023-02-14T08:27:36.618Z,24.80
2023-02-14T08:32:30.430Z,23.42
2023-02-14T08:37:24.174Z,24.38
2023-02-14T08:42:17.330Z,23.70
2023-02-14T08:47:10.339Z,26.40
2023-02-14T08:52:03.592Z,26.30
2023-02-14T08:56:57.606Z,26.17
2023-02-14T09:01:52.358Z,27.25
2023-02-14T09:06:45.317Z,29.42
2023-02-14T09:11:38.826Z,30.00
2023-02-14T09:16:33.212Z,30.40
2023-02-14T09:21:27.412Z,31.77
2023-02-14T09:26:21.637Z,32.33
2023-02-14T09:31:17.440Z,31.05
2023-02-14T09:36:28.870Z,32.30
2023-02-14T09:41:42.166Z,32.25
2023-02-14T09:46:42.368Z,31.20
2023-02-14T09:51:35.557Z,30.63
2023-02-14T09:56:50.330Z,26.17
2023-02-14T10:01:49.003Z,29.08
2023-02-14T10:06:59.189Z,25.77
2023-02-14T10:11:52.073Z,26.55
2023-02-14T10:16:54.200Z,26.10
2023-02-14T10:21:57.256Z,27.25
2023-02-14T10:26:51.741Z,28.00
2023-02-14T10:31:44.061Z,27.50
2023-02-14T10:37:04.465Z,27.00
2023-02-14T10:42:34.028Z,27.15
2023-02-14T10:47:47.154Z,25.10
2023-02-14T10:52:41.434Z,28.38
2023-02-14T10:57:36.912Z,25.85
2023-02-14T11:02:52.620Z,29.40
2023-02-14T11:07:46.674Z,27.42
2023-02-14T11:12:40.992Z,27.77
2023-02-14T11:17:36.373Z,28.90
2023-02-14T11:22:30.916Z,30.35
2023-02-14T11:27:23.910Z,34.38
2023-02-14T11:32:25.136Z,42.45
2023-02-14T11:37:45.076Z,42.90
2023-02-14T11:42:44.145Z,44.50
2023-02-14T11:47:43.718Z,47.63
2023-02-14T11:52:51.233Z,40.20
2023-02-14T11:57:44.775Z,40.58
2023-02-14T12:02:42.405Z,39.60
2023-02-14T12:07:37.756Z,37.03
2023-02-14T12:12:30.325Z,41.55
2023-02-14T12:17:53.916Z,36.95
2023-02-14T12:22:52.669Z,39.95
2023-02-14T12:27:53.196Z,38.05
2023-02-14T12:32:51.735Z,36.50
2023-02-14T12:38:08.488Z,36.67
2023-02-14T12:43:19.284Z,35.83
2023-02-14T12:48:50.575Z,36.35
2023-02-14T12:54:01.780Z,36.88
2023-02-14T12:59:32.154Z,39.58
2023-02-14T13:04:45.821Z,39.75
2023-02-14T13:09:44.389Z,38.10
2023-02-14T13:14:57.611Z,38.95
2023-02-14T13:19:56.877Z,37.20
2023-02-14T13:24:52.563Z,40.35
2023-02-14T13:29:51.656Z,34.03
2023-02-14T13:34:47.594Z,36.33
2023-02-14T13:39:44.264Z,34.83
2023-02-14T13:44:49.001Z,36.40
2023-02-14T13:49:49.083Z,34.30
2023-02-14T13:54:48.894Z,37.45
2023-02-14T13:59:42.324Z,36.28
2023-02-14T14:04:37.676Z,36.00
2023-02-14T14:09:42.630Z,35.00
2023-02-14T14:14:37.307Z,35.20
2023-02-14T14:19:29.256Z,38.03
2023-02-14T14:24:31.568Z,36.92
2023-02-14T14:29:33.763Z,33.65
2023-02-14T14:34:29.219Z,34.85
2023-02-14T14:39:27.900Z,40.63
2023-02-14T14:44:21.627Z,36.50
2023-02-14T14:49:15.009Z,34.90
2023-02-14T14:54:20.369Z,33.40
2023-02-14T14:59:36.213Z,34.13
2023-02-14T15:04:31.700Z,36.78
2023-02-14T15:09:32.505Z,35.67
2023-02-14T15:14:26.200Z,34.72
2023-02-14T15:19:33.881Z,34.33
2023-02-14T15:24:26.832Z,35.35
2023-02-14T15:29:43.256Z,36.95
2023-02-14T15:34:36.216Z,37.33
2023-02-14T15:39:45.325Z,35.58
2023-02-14T15:44:38.117Z,34.20
2023-02-14T15:49:37.223Z,35.97
2023-02-14T15:54:37.436Z,36.75
2023-02-14T15:59:31.533Z,33.55
2023-02-14T16:04:26.508Z,32.42
2023-02-14T16:09:30.275Z,34.67
2023-02-14T16:14:56.832Z,33.80
2023-02-14T16:19:50.326Z,32.83
2023-02-14T16:24:43.793Z,33.90
2023-02-14T16:29:37.833Z,32.83
2023-02-14T16:34:30.379Z,34.65
2023-02-14T16:39:25.302Z,36.30
2023-02-14T16:44:26.048Z,35.67
2023-02-14T16:49:21.445Z,34.60
2023-02-14T16:54:22.257Z,32.88
2023-02-14T16:59:16.165Z,35.03
2023-02-14T17:04:10.128Z,33.65
2023-02-14T17:09:07.321Z,35.25
2023-02-14T17:14:00.600Z,34.40
2023-02-14T17:18:53.758Z,33.58
2023-02-14T17:23:46.168Z,36.30
2023-02-14T17:28:39.402Z,35.88
2023-02-14T17:33:33.227Z,38.33
2023-02-14T17:38:26.580Z,43.30
2023-02-14T17:43:21.000Z,41.30
2023-02-14T17:48:14.409Z,46.60
2023-02-14T17:53:08.058Z,48.35
2023-02-14T17:58:01.396Z,44.30
2023-02-14T18:02:54.468Z,46.63
2023-02-14T18:07:48.985Z,45.30
2023-02-14T18:12:42.707Z,50.85
2023-02-14T18:17:36.488Z,57.58
2023-02-14T18:22:29.934Z,50.45
2023-02-14T18:27:23.118Z,50.05
2023-02-14T18:32:16.730Z,50.33
2023-02-14T18:37:12.524Z,60.80
2023-02-14T18:42:06.810Z,53.50
2023-02-14T18:47:01.176Z,54.28
2023-02-14T18:51:55.665Z,53.97
2023-02-14T18:56:48.912Z,52.13
2023-02-14T19:01:46.290Z,50.65
2023-02-14T19:06:40.784Z,48.25
2023-02-14T19:11:34.885Z,48.20
2023-02-14T19:16:33.142Z,47.45
2023-02-14T19:21:31.082Z,44.00
2023-02-14T19:26:30.697Z,42.75
2023-02-14T19:31:28.352Z,47.10
2023-02-14T19:36:22.193Z,61.03
2023-02-14T19:41:21.677Z,46.63
2023-02-14T19:46:16.375Z,64.07
2023-02-14T19:51:15.179Z,58.92
2023-02-14T19:56:09.067Z,53.72
2023-02-14T20:01:03.250Z,55.78
2023-02-14T20:05:56.565Z,54.50
2023-02-14T20:10:50.513Z,51.65
2023-02-14T20:15:46.058Z,51.08
2023-02-14T20:21:03.449Z,49.97
2023-02-14T20:25:56.856Z,46.95
2023-02-14T20:30:50.645Z,47.20
2023-02-14T20:35:44.699Z,47.50
2023-02-14T20:40:43.375Z,51.22
2023-02-14T20:45:36.948Z,45.53
2023-02-14T20:50:30.514Z,46.67
2023-02-14T20:55:23.653Z,45.50
2023-02-14T21:00:18.229Z,44.05
2023-02-14T21:05:12.857Z,44.95
2023-02-14T21:10:09.465Z,46.50
2023-02-14T21:15:02.624Z,46.88
2023-02-14T21:19:56.174Z,46.90
2023-02-14T21:24:50.062Z,43.65
2023-02-14T21:29:43.393Z,42.50
2023-02-14T21:34:37.286Z,37.20
2023-02-14T21:39:31.319Z,37.63
2023-02-14T21:44:43.194Z,37.75
2023-02-14T21:49:54.660Z,37.50
2023-02-14T21:54:48.690Z,34.97
2023-02-14T21:59:42.314Z,36.40
2023-02-14T22:04:36.225Z,33.58
2023-02-14T22:09:29.139Z,35.78
2023-02-14T22:14:23.030Z,32.97
2023-02-14T22:19:16.777Z,32.88
2023-02-14T22:24:10.015Z,37.78
2023-02-14T22:29:03.118Z,34.40
2023-02-14T22:33:56.714Z,34.08
2023-02-14T22:38:49.741Z,33.38
2023-02-14T22:43:43.998Z,31.27
2023-02-14T22:48:37.662Z,27.45
2023-02-14T22:53:31.156Z,27.73
2023-02-14T22:58:28.416Z,28.45
2023-02-14T23:03:21.229Z,27.85
2023-02-14T23:08:15.604Z,27.17
2023-02-14T23:13:29.900Z,27.13
2023-02-14T23:18:41.661Z,30.13
2023-02-14T23:23:35.467Z,26.33
2023-02-14T23:28:29.697Z,30.02
2023-02-14T23:33:24.085Z,28.88
2023-02-14T23:38:17.109Z,27.25
2023-02-14T23:43:11.138Z,26.52
2023-02-14T23:48:05.604Z,24.65
2023-02-14T23:53:00.173Z,23.83
2023-02-14T23:57:53.447Z,19.95
